Airfield :
LOGIN :

Register | Disclaimer

   EN    FR    IT 

 










Legend :    VFR   Marginal VFR   IFR   Intensive IFR   Very Intensive IFR
Visi :
Ceiling :
>= 8 km
>= 3000ft
5 to 8 km
1000 to 3000 ft
1500m to 5 km
500 to 1000 ft
800 to 1500m
200 to 500 ft
< 800m
< 200 ft
Symbols :   Thunderstorms  Fog  Heavy snow  Heavy precipitations  Wind > 20 kt
SIGMETs :     Misc.  Thunderstorms  Icing  Turbulence  Mountain Waves  Volcanic Ashes







- Airport Elevation : 788 ft
- IATA code : DCM
- Download approach charts


LFCK - Castres-Mazamet

CURRENT METAR :
  • 181300Z AUTO 12013KT 9999 SCT049 28/14 Q1018 NOSIG

EXPIRED METARs :
  • 181230Z AUTO 12014KT 080V140 CAVOK 28/15 Q1018 NOSIG
  • 181200Z AUTO 11013KT 080V150 CAVOK 28/15 Q1018 BECMG 12015G25KT
  • 181130Z AUTO 12011KT 080V150 CAVOK 28/14 Q1018 BECMG 12015G25KT
  • 181100Z AUTO 12010KT 080V170 9999 FEW041 27/15 Q1018 BECMG 12015G25KT
  • 181030Z AUTO 10013KT 080V140 CAVOK 26/15 Q1018 BECMG 12015G25KT

TAF TAF LFCK
Valid from the 18 at 12:00 until the 18 at 21:00 UTC


181100Z 1812/1821 11010KT CAVOK
No reported NOTAMs for that airfield.



MET'MAP, your aeronautical weather chart ! - Copyright ORBIFLY December 2007 - Disclaimer

ORBIFLY MET'MAP TEAM :

Programming & Development : Alexandra Zaïnal
Concept & Development : Baudouin d'Aumeries
Co-Development & Prog : Marc-Olivier Méhu
Technical & hardware support : Manuel Goepfert

Contact : metmap@orbifly.com




SOURCES & CREDITS :

   NOAA